sensor_id;sensor_type;location;lat;lon;timestamp;P1;durP1;ratioP1;P2;durP2;ratioP2
15116;SDS011;7659;51.038;13.786;2022-08-16T00:02:08;9.50;;;9.10;;
15116;SDS011;7659;51.038;13.786;2022-08-16T00:04:34;9.13;;;8.73;;
15116;SDS011;7659;51.038;13.786;2022-08-16T00:06:59;9.75;;;9.35;;
15116;SDS011;7659;51.038;13.786;2022-08-16T00:09:25;9.95;;;9.55;;
15116;SDS011;7659;51.038;13.786;2022-08-16T00:11:50;9.73;;;9.32;;
15116;SDS011;7659;51.038;13.786;2022-08-16T00:14:19;9.80;;;9.40;;
15116;SDS011;7659;51.038;13.786;2022-08-16T00:16:45;10.25;;;9.85;;
15116;SDS011;7659;51.038;13.786;2022-08-16T00:19:11;10.10;;;9.70;;
15116;SDS011;7659;51.038;13.786;2022-08-16T00:21:37;10.00;;;9.60;;
15116;SDS011;7659;51.038;13.786;2022-08-16T00:24:03;10.25;;;9.85;;
15116;SDS011;7659;51.038;13.786;2022-08-16T00:26:28;9.90;;;9.50;;
15116;SDS011;7659;51.038;13.786;2022-08-16T00:28:54;10.38;;;9.98;;
15116;SDS011;7659;51.038;13.786;2022-08-16T00:31:19;10.27;;;9.88;;
15116;SDS011;7659;51.038;13.786;2022-08-16T00:33:45;10.75;;;10.35;;
15116;SDS011;7659;51.038;13.786;2022-08-16T00:36:11;10.70;;;10.30;;
15116;SDS011;7659;51.038;13.786;2022-08-16T00:38:36;10.38;;;9.98;;
15116;SDS011;7659;51.038;13.786;2022-08-16T00:41:02;10.35;;;9.95;;
15116;SDS011;7659;51.038;13.786;2022-08-16T00:43:29;10.23;;;9.82;;
15116;SDS011;7659;51.038;13.786;2022-08-16T00:48:23;10.40;;;10.00;;
15116;SDS011;7659;51.038;13.786;2022-08-16T00:50:49;9.65;;;9.25;;
15116;SDS011;7659;51.038;13.786;2022-08-16T00:53:16;9.90;;;9.50;;
15116;SDS011;7659;51.038;13.786;2022-08-16T00:55:43;10.35;;;9.95;;
15116;SDS011;7659;51.038;13.786;2022-08-16T00:58:11;10.13;;;9.73;;
15116;SDS011;7659;51.038;13.786;2022-08-16T01:00:37;9.70;;;9.30;;
15116;SDS011;7659;51.038;13.786;2022-08-16T01:03:06;9.23;;;8.82;;
15116;SDS011;7659;51.038;13.786;2022-08-16T01:05:33;10.25;;;9.85;;
15116;SDS011;7659;51.038;13.786;2022-08-16T01:07:59;10.25;;;9.85;;
15116;SDS011;7659;51.038;13.786;2022-08-16T01:10:27;10.40;;;10.00;;
15116;SDS011;7659;51.038;13.786;2022-08-16T01:12:53;10.32;;;9.93;;
15116;SDS011;7659;51.038;13.786;2022-08-16T01:15:18;10.45;;;10.05;;
15116;SDS011;7659;51.038;13.786;2022-08-16T01:17:44;10.63;;;10.23;;
15116;SDS011;7659;51.038;13.786;2022-08-16T01:20:11;10.45;;;10.05;;
15116;SDS011;7659;51.038;13.786;2022-08-16T01:25:11;10.40;;;10.00;;
15116;SDS011;7659;51.038;13.786;2022-08-16T01:27:47;10.25;;;9.85;;
15116;SDS011;7659;51.038;13.786;2022-08-16T01:32:46;10.15;;;9.75;;
15116;SDS011;7659;51.038;13.786;2022-08-16T01:35:16;10.13;;;9.73;;
15116;SDS011;7659;51.038;13.786;2022-08-16T01:37:44;10.82;;;10.43;;
15116;SDS011;7659;51.038;13.786;2022-08-16T01:40:12;10.65;;;10.25;;
15116;SDS011;7659;51.038;13.786;2022-08-16T01:42:38;10.32;;;9.93;;
15116;SDS011;7659;51.038;13.786;2022-08-16T01:45:04;10.02;;;9.63;;
15116;SDS011;7659;51.038;13.786;2022-08-16T01:47:29;10.02;;;9.63;;
15116;SDS011;7659;51.038;13.786;2022-08-16T01:49:56;9.88;;;9.48;;
15116;SDS011;7659;51.038;13.786;2022-08-16T01:52:21;9.65;;;9.25;;
15116;SDS011;7659;51.038;13.786;2022-08-16T01:54:59;9.75;;;9.35;;
15116;SDS011;7659;51.038;13.786;2022-08-16T01:57:26;9.40;;;9.00;;
15116;SDS011;7659;51.038;13.786;2022-08-16T01:59:52;9.65;;;9.25;;
15116;SDS011;7659;51.038;13.786;2022-08-16T02:02:18;9.88;;;9.48;;
15116;SDS011;7659;51.038;13.786;2022-08-16T02:04:44;10.27;;;9.88;;
15116;SDS011;7659;51.038;13.786;2022-08-16T02:07:10;10.32;;;9.93;;
15116;SDS011;7659;51.038;13.786;2022-08-16T02:09:39;9.80;;;9.40;;
15116;SDS011;7659;51.038;13.786;2022-08-16T02:12:05;9.65;;;9.25;;
15116;SDS011;7659;51.038;13.786;2022-08-16T02:14:31;9.98;;;9.57;;
15116;SDS011;7659;51.038;13.786;2022-08-16T02:16:58;9.87;;;9.47;;
15116;SDS011;7659;51.038;13.786;2022-08-16T02:19:26;10.15;;;9.75;;
15116;SDS011;7659;51.038;13.786;2022-08-16T02:21:53;10.13;;;9.73;;
15116;SDS011;7659;51.038;13.786;2022-08-16T02:24:19;10.48;;;10.07;;
15116;SDS011;7659;51.038;13.786;2022-08-16T02:26:47;10.23;;;9.82;;
15116;SDS011;7659;51.038;13.786;2022-08-16T02:29:13;9.93;;;9.52;;
15116;SDS011;7659;51.038;13.786;2022-08-16T02:31:39;9.10;;;8.70;;
15116;SDS011;7659;51.038;13.786;2022-08-16T02:34:06;9.50;;;9.10;;
15116;SDS011;7659;51.038;13.786;2022-08-16T02:36:37;9.32;;;8.93;;
15116;SDS011;7659;51.038;13.786;2022-08-16T02:39:03;9.88;;;9.48;;
15116;SDS011;7659;51.038;13.786;2022-08-16T02:41:29;9.55;;;9.15;;
15116;SDS011;7659;51.038;13.786;2022-08-16T02:43:55;10.05;;;9.65;;
15116;SDS011;7659;51.038;13.786;2022-08-16T02:46:21;9.70;;;9.30;;
15116;SDS011;7659;51.038;13.786;2022-08-16T02:48:48;9.00;;;8.60;;
15116;SDS011;7659;51.038;13.786;2022-08-16T02:51:14;9.07;;;8.67;;
15116;SDS011;7659;51.038;13.786;2022-08-16T02:53:41;9.20;;;8.80;;
15116;SDS011;7659;51.038;13.786;2022-08-16T02:56:08;9.90;;;9.50;;
15116;SDS011;7659;51.038;13.786;2022-08-16T02:58:35;9.23;;;8.83;;
15116;SDS011;7659;51.038;13.786;2022-08-16T03:01:01;9.68;;;9.27;;
15116;SDS011;7659;51.038;13.786;2022-08-16T03:03:27;9.00;;;8.60;;
15116;SDS011;7659;51.038;13.786;2022-08-16T03:05:53;9.33;;;8.93;;
15116;SDS011;7659;51.038;13.786;2022-08-16T03:08:21;8.82;;;8.48;;
15116;SDS011;7659;51.038;13.786;2022-08-16T03:10:48;9.80;;;9.40;;
15116;SDS011;7659;51.038;13.786;2022-08-16T03:13:15;9.10;;;8.70;;
15116;SDS011;7659;51.038;13.786;2022-08-16T03:15:43;10.03;;;9.63;;
15116;SDS011;7659;51.038;13.786;2022-08-16T03:18:09;9.43;;;9.03;;
15116;SDS011;7659;51.038;13.786;2022-08-16T03:20:35;9.40;;;9.00;;
15116;SDS011;7659;51.038;13.786;2022-08-16T03:23:02;9.30;;;8.90;;
15116;SDS011;7659;51.038;13.786;2022-08-16T03:25:29;8.80;;;8.47;;
15116;SDS011;7659;51.038;13.786;2022-08-16T03:28:00;9.63;;;9.23;;
15116;SDS011;7659;51.038;13.786;2022-08-16T03:30:27;8.53;;;8.23;;
15116;SDS011;7659;51.038;13.786;2022-08-16T03:32:57;9.23;;;8.82;;
15116;SDS011;7659;51.038;13.786;2022-08-16T03:35:28;8.53;;;8.23;;
15116;SDS011;7659;51.038;13.786;2022-08-16T03:37:55;9.70;;;9.30;;
15116;SDS011;7659;51.038;13.786;2022-08-16T03:40:22;8.70;;;8.40;;
15116;SDS011;7659;51.038;13.786;2022-08-16T03:42:47;8.83;;;8.47;;
15116;SDS011;7659;51.038;13.786;2022-08-16T03:45:13;8.60;;;8.30;;
15116;SDS011;7659;51.038;13.786;2022-08-16T03:47:39;9.83;;;9.43;;
15116;SDS011;7659;51.038;13.786;2022-08-16T03:50:06;9.43;;;9.03;;
15116;SDS011;7659;51.038;13.786;2022-08-16T03:52:32;10.27;;;9.87;;
15116;SDS011;7659;51.038;13.786;2022-08-16T03:55:01;9.07;;;8.67;;
15116;SDS011;7659;51.038;13.786;2022-08-16T03:57:28;10.10;;;9.70;;
15116;SDS011;7659;51.038;13.786;2022-08-16T03:59:54;10.13;;;9.73;;
15116;SDS011;7659;51.038;13.786;2022-08-16T04:02:20;10.43;;;10.03;;
15116;SDS011;7659;51.038;13.786;2022-08-16T04:04:47;10.33;;;9.93;;
15116;SDS011;7659;51.038;13.786;2022-08-16T04:07:13;10.10;;;9.70;;
15116;SDS011;7659;51.038;13.786;2022-08-16T04:09:39;10.50;;;10.10;;
15116;SDS011;7659;51.038;13.786;2022-08-16T04:12:07;9.53;;;9.13;;
15116;SDS011;7659;51.038;13.786;2022-08-16T04:14:33;9.77;;;9.37;;
15116;SDS011;7659;51.038;13.786;2022-08-16T04:17:00;9.70;;;9.30;;
15116;SDS011;7659;51.038;13.786;2022-08-16T04:19:32;9.40;;;9.00;;
15116;SDS011;7659;51.038;13.786;2022-08-16T04:22:00;9.30;;;8.90;;
15116;SDS011;7659;51.038;13.786;2022-08-16T04:24:29;9.67;;;9.27;;
15116;SDS011;7659;51.038;13.786;2022-08-16T04:26:56;10.20;;;9.80;;
15116;SDS011;7659;51.038;13.786;2022-08-16T04:29:21;10.00;;;9.60;;
15116;SDS011;7659;51.038;13.786;2022-08-16T04:31:48;10.37;;;9.97;;
15116;SDS011;7659;51.038;13.786;2022-08-16T04:34:14;9.60;;;9.20;;
15116;SDS011;7659;51.038;13.786;2022-08-16T04:36:41;9.13;;;8.73;;
15116;SDS011;7659;51.038;13.786;2022-08-16T04:39:07;9.23;;;8.83;;
15116;SDS011;7659;51.038;13.786;2022-08-16T04:41:33;8.93;;;8.53;;
15116;SDS011;7659;51.038;13.786;2022-08-16T04:44:00;10.05;;;9.65;;
15116;SDS011;7659;51.038;13.786;2022-08-16T04:46:26;9.70;;;9.30;;
15116;SDS011;7659;51.038;13.786;2022-08-16T04:48:53;9.70;;;9.30;;
15116;SDS011;7659;51.038;13.786;2022-08-16T04:51:18;10.13;;;9.73;;
15116;SDS011;7659;51.038;13.786;2022-08-16T04:53:47;10.10;;;9.70;;
15116;SDS011;7659;51.038;13.786;2022-08-16T04:56:15;10.10;;;9.70;;
15116;SDS011;7659;51.038;13.786;2022-08-16T04:58:41;10.67;;;10.27;;
15116;SDS011;7659;51.038;13.786;2022-08-16T05:01:07;9.20;;;8.80;;
15116;SDS011;7659;51.038;13.786;2022-08-16T05:03:32;9.13;;;8.73;;
15116;SDS011;7659;51.038;13.786;2022-08-16T05:05:58;8.83;;;8.50;;
15116;SDS011;7659;51.038;13.786;2022-08-16T05:08:25;8.77;;;8.47;;
15116;SDS011;7659;51.038;13.786;2022-08-16T05:11:00;9.33;;;8.93;;
15116;SDS011;7659;51.038;13.786;2022-08-16T05:13:27;10.38;;;9.98;;
15116;SDS011;7659;51.038;13.786;2022-08-16T05:15:54;9.63;;;9.23;;
15116;SDS011;7659;51.038;13.786;2022-08-16T05:18:23;12.20;;;11.70;;
15116;SDS011;7659;51.038;13.786;2022-08-16T05:20:53;11.97;;;11.50;;
15116;SDS011;7659;51.038;13.786;2022-08-16T05:23:19;11.68;;;11.27;;
15116;SDS011;7659;51.038;13.786;2022-08-16T05:25:45;11.55;;;11.15;;
15116;SDS011;7659;51.038;13.786;2022-08-16T05:28:10;11.55;;;11.15;;
15116;SDS011;7659;51.038;13.786;2022-08-16T05:30:39;12.10;;;11.60;;
15116;SDS011;7659;51.038;13.786;2022-08-16T05:33:12;12.40;;;11.90;;
15116;SDS011;7659;51.038;13.786;2022-08-16T05:35:38;11.50;;;11.10;;
15116;SDS011;7659;51.038;13.786;2022-08-16T05:38:10;11.63;;;11.23;;
15116;SDS011;7659;51.038;13.786;2022-08-16T05:40:36;11.75;;;11.35;;
15116;SDS011;7659;51.038;13.786;2022-08-16T05:43:02;12.07;;;11.57;;
15116;SDS011;7659;51.038;13.786;2022-08-16T05:45:28;12.13;;;11.63;;
15116;SDS011;7659;51.038;13.786;2022-08-16T05:47:57;12.20;;;11.70;;
15116;SDS011;7659;51.038;13.786;2022-08-16T05:50:22;11.98;;;11.52;;
15116;SDS011;7659;51.038;13.786;2022-08-16T05:52:49;11.60;;;11.20;;
15116;SDS011;7659;51.038;13.786;2022-08-16T05:55:16;12.13;;;11.63;;
15116;SDS011;7659;51.038;13.786;2022-08-16T05:57:42;12.18;;;11.68;;
15116;SDS011;7659;51.038;13.786;2022-08-16T06:00:09;12.38;;;11.88;;
15116;SDS011;7659;51.038;13.786;2022-08-16T06:02:39;12.10;;;11.60;;
15116;SDS011;7659;51.038;13.786;2022-08-16T06:05:17;11.40;;;11.00;;
15116;SDS011;7659;51.038;13.786;2022-08-16T06:07:43;11.57;;;11.18;;
15116;SDS011;7659;51.038;13.786;2022-08-16T06:10:18;11.77;;;11.38;;
15116;SDS011;7659;51.038;13.786;2022-08-16T06:12:44;11.52;;;11.13;;
15116;SDS011;7659;51.038;13.786;2022-08-16T06:15:11;11.30;;;10.90;;
15116;SDS011;7659;51.038;13.786;2022-08-16T06:17:40;10.98;;;10.57;;
15116;SDS011;7659;51.038;13.786;2022-08-16T06:20:06;11.40;;;11.00;;
15116;SDS011;7659;51.038;13.786;2022-08-16T06:22:32;11.48;;;11.07;;
15116;SDS011;7659;51.038;13.786;2022-08-16T06:24:58;11.23;;;10.82;;
15116;SDS011;7659;51.038;13.786;2022-08-16T06:27:24;11.25;;;10.85;;
15116;SDS011;7659;51.038;13.786;2022-08-16T06:29:50;11.65;;;11.25;;
15116;SDS011;7659;51.038;13.786;2022-08-16T06:32:18;11.38;;;10.98;;
15116;SDS011;7659;51.038;13.786;2022-08-16T06:34:44;11.40;;;11.00;;
15116;SDS011;7659;51.038;13.786;2022-08-16T06:37:12;10.90;;;10.50;;
15116;SDS011;7659;51.038;13.786;2022-08-16T06:39:38;10.70;;;10.30;;
15116;SDS011;7659;51.038;13.786;2022-08-16T06:42:16;10.95;;;10.55;;
15116;SDS011;7659;51.038;13.786;2022-08-16T06:44:45;10.50;;;10.10;;
15116;SDS011;7659;51.038;13.786;2022-08-16T06:47:27;10.75;;;10.35;;
15116;SDS011;7659;51.038;13.786;2022-08-16T06:49:52;10.90;;;10.50;;
15116;SDS011;7659;51.038;13.786;2022-08-16T06:52:18;10.70;;;10.30;;
15116;SDS011;7659;51.038;13.786;2022-08-16T06:54:43;10.50;;;10.10;;
15116;SDS011;7659;51.038;13.786;2022-08-16T06:57:09;10.60;;;10.20;;
15116;SDS011;7659;51.038;13.786;2022-08-16T06:59:36;10.25;;;9.85;;
15116;SDS011;7659;51.038;13.786;2022-08-16T07:02:02;9.48;;;9.07;;
15116;SDS011;7659;51.038;13.786;2022-08-16T07:04:28;9.38;;;8.98;;
15116;SDS011;7659;51.038;13.786;2022-08-16T07:06:54;8.73;;;8.43;;
15116;SDS011;7659;51.038;13.786;2022-08-16T07:09:20;9.15;;;8.75;;
15116;SDS011;7659;51.038;13.786;2022-08-16T07:11:46;8.90;;;8.50;;
15116;SDS011;7659;51.038;13.786;2022-08-16T07:14:13;8.93;;;8.57;;
15116;SDS011;7659;51.038;13.786;2022-08-16T07:16:49;8.93;;;8.52;;
15116;SDS011;7659;51.038;13.786;2022-08-16T07:19:14;9.07;;;8.68;;
15116;SDS011;7659;51.038;13.786;2022-08-16T07:21:42;9.43;;;9.02;;
15116;SDS011;7659;51.038;13.786;2022-08-16T07:24:08;9.00;;;8.60;;
15116;SDS011;7659;51.038;13.786;2022-08-16T07:29:32;9.27;;;8.88;;
15116;SDS011;7659;51.038;13.786;2022-08-16T07:31:59;9.05;;;8.65;;
15116;SDS011;7659;51.038;13.786;2022-08-16T07:34:25;8.60;;;8.30;;
15116;SDS011;7659;51.038;13.786;2022-08-16T07:36:51;8.60;;;8.30;;
15116;SDS011;7659;51.038;13.786;2022-08-16T07:39:17;8.73;;;8.43;;
15116;SDS011;7659;51.038;13.786;2022-08-16T07:41:43;9.00;;;8.60;;
15116;SDS011;7659;51.038;13.786;2022-08-16T07:44:09;7.82;;;7.53;;
15116;SDS011;7659;51.038;13.786;2022-08-16T07:46:36;8.32;;;8.02;;
15116;SDS011;7659;51.038;13.786;2022-08-16T07:49:06;8.40;;;8.10;;
15116;SDS011;7659;51.038;13.786;2022-08-16T07:51:34;8.80;;;8.48;;
15116;SDS011;7659;51.038;13.786;2022-08-16T07:54:03;8.60;;;8.30;;
15116;SDS011;7659;51.038;13.786;2022-08-16T07:56:28;9.20;;;8.80;;
15116;SDS011;7659;51.038;13.786;2022-08-16T07:58:55;9.00;;;8.60;;
15116;SDS011;7659;51.038;13.786;2022-08-16T08:01:22;8.70;;;8.40;;
15116;SDS011;7659;51.038;13.786;2022-08-16T08:03:53;9.70;;;9.30;;
15116;SDS011;7659;51.038;13.786;2022-08-16T08:06:25;9.20;;;8.80;;
15116;SDS011;7659;51.038;13.786;2022-08-16T08:08:55;9.48;;;9.07;;
15116;SDS011;7659;51.038;13.786;2022-08-16T08:11:22;9.50;;;9.10;;
15116;SDS011;7659;51.038;13.786;2022-08-16T08:13:48;9.50;;;9.10;;
15116;SDS011;7659;51.038;13.786;2022-08-16T08:16:15;9.20;;;8.80;;
15116;SDS011;7659;51.038;13.786;2022-08-16T08:18:41;3.78;;;3.60;;
15116;SDS011;7659;51.038;13.786;2022-08-16T08:21:07;0.40;;;0.40;;
15116;SDS011;7659;51.038;13.786;2022-08-16T08:23:33;2.35;;;2.25;;
15116;SDS011;7659;51.038;13.786;2022-08-16T08:26:03;9.20;;;8.80;;
15116;SDS011;7659;51.038;13.786;2022-08-16T08:28:29;9.00;;;8.60;;
15116;SDS011;7659;51.038;13.786;2022-08-16T08:31:00;8.40;;;8.10;;
15116;SDS011;7659;51.038;13.786;2022-08-16T08:33:29;9.07;;;8.68;;
15116;SDS011;7659;51.038;13.786;2022-08-16T08:35:56;8.45;;;8.15;;
15116;SDS011;7659;51.038;13.786;2022-08-16T08:38:22;8.80;;;8.45;;
15116;SDS011;7659;51.038;13.786;2022-08-16T08:40:48;8.50;;;8.20;;
15116;SDS011;7659;51.038;13.786;2022-08-16T08:43:14;8.45;;;8.15;;
15116;SDS011;7659;51.038;13.786;2022-08-16T08:45:45;8.60;;;8.30;;
15116;SDS011;7659;51.038;13.786;2022-08-16T08:48:10;8.57;;;8.27;;
15116;SDS011;7659;51.038;13.786;2022-08-16T08:50:36;8.77;;;8.48;;
15116;SDS011;7659;51.038;13.786;2022-08-16T08:53:03;9.02;;;8.63;;
15116;SDS011;7659;51.038;13.786;2022-08-16T08:55:29;8.70;;;8.40;;
15116;SDS011;7659;51.038;13.786;2022-08-16T08:57:56;8.90;;;8.50;;
15116;SDS011;7659;51.038;13.786;2022-08-16T09:00:42;8.48;;;8.18;;
15116;SDS011;7659;51.038;13.786;2022-08-16T09:03:07;8.55;;;8.25;;
15116;SDS011;7659;51.038;13.786;2022-08-16T09:05:36;7.60;;;7.30;;
15116;SDS011;7659;51.038;13.786;2022-08-16T09:08:04;7.85;;;7.55;;
15116;SDS011;7659;51.038;13.786;2022-08-16T09:10:42;7.80;;;7.50;;
15116;SDS011;7659;51.038;13.786;2022-08-16T09:13:07;8.00;;;7.70;;
15116;SDS011;7659;51.038;13.786;2022-08-16T09:15:39;8.30;;;8.00;;
15116;SDS011;7659;51.038;13.786;2022-08-16T09:18:05;8.57;;;8.27;;
15116;SDS011;7659;51.038;13.786;2022-08-16T09:20:31;8.10;;;7.80;;
15116;SDS011;7659;51.038;13.786;2022-08-16T09:22:57;8.38;;;8.07;;
15116;SDS011;7659;51.038;13.786;2022-08-16T09:25:37;8.75;;;8.45;;
15116;SDS011;7659;51.038;13.786;2022-08-16T09:28:07;8.50;;;8.20;;
15116;SDS011;7659;51.038;13.786;2022-08-16T09:30:35;7.90;;;7.60;;
15116;SDS011;7659;51.038;13.786;2022-08-16T09:33:01;8.30;;;8.00;;
15116;SDS011;7659;51.038;13.786;2022-08-16T09:35:27;8.20;;;7.90;;
15116;SDS011;7659;51.038;13.786;2022-08-16T09:56:15;0.30;;;0.30;;
15116;SDS011;7659;51.038;13.786;2022-08-16T09:58:43;0.40;;;0.40;;
15116;SDS011;7659;51.038;13.786;2022-08-16T10:01:09;0.30;;;0.30;;
15116;SDS011;7659;51.038;13.786;2022-08-16T10:03:34;0.32;;;0.32;;
15116;SDS011;7659;51.038;13.786;2022-08-16T10:06:00;0.30;;;0.30;;
15116;SDS011;7659;51.038;13.786;2022-08-16T10:08:25;0.40;;;0.40;;
15116;SDS011;7659;51.038;13.786;2022-08-16T10:10:51;0.30;;;0.30;;
15116;SDS011;7659;51.038;13.786;2022-08-16T10:13:35;0.30;;;0.30;;
15116;SDS011;7659;51.038;13.786;2022-08-16T10:16:00;0.40;;;0.40;;
15116;SDS011;7659;51.038;13.786;2022-08-16T10:18:27;4.22;;;4.03;;
15116;SDS011;7659;51.038;13.786;2022-08-16T10:20:54;7.00;;;6.70;;
15116;SDS011;7659;51.038;13.786;2022-08-16T10:23:20;0.60;;;0.60;;
15116;SDS011;7659;51.038;13.786;2022-08-16T10:25:46;4.20;;;4.00;;
15116;SDS011;7659;51.038;13.786;2022-08-16T10:28:12;2.70;;;2.60;;
15116;SDS011;7659;51.038;13.786;2022-08-16T10:30:37;5.80;;;5.55;;
15116;SDS011;7659;51.038;13.786;2022-08-16T10:33:06;0.40;;;0.40;;
15116;SDS011;7659;51.038;13.786;2022-08-16T10:35:31;0.43;;;0.43;;
15116;SDS011;7659;51.038;13.786;2022-08-16T10:37:57;0.40;;;0.40;;
15116;SDS011;7659;51.038;13.786;2022-08-16T10:40:23;0.40;;;0.40;;
15116;SDS011;7659;51.038;13.786;2022-08-16T10:42:48;0.40;;;0.40;;
15116;SDS011;7659;51.038;13.786;2022-08-16T10:45:15;0.40;;;0.40;;
15116;SDS011;7659;51.038;13.786;2022-08-16T10:47:40;0.40;;;0.40;;
15116;SDS011;7659;51.038;13.786;2022-08-16T10:50:06;6.90;;;6.60;;
15116;SDS011;7659;51.038;13.786;2022-08-16T10:52:32;1.95;;;1.90;;
15116;SDS011;7659;51.038;13.786;2022-08-16T10:54:58;7.20;;;6.90;;
15116;SDS011;7659;51.038;13.786;2022-08-16T10:57:24;7.38;;;7.07;;
15116;SDS011;7659;51.038;13.786;2022-08-16T10:59:50;6.43;;;6.13;;
15116;SDS011;7659;51.038;13.786;2022-08-16T11:02:17;6.40;;;6.10;;
15116;SDS011;7659;51.038;13.786;2022-08-16T11:04:43;6.60;;;6.30;;
15116;SDS011;7659;51.038;13.786;2022-08-16T11:07:09;6.47;;;6.18;;
15116;SDS011;7659;51.038;13.786;2022-08-16T11:09:35;6.47;;;6.18;;
15116;SDS011;7659;51.038;13.786;2022-08-16T11:12:00;6.30;;;6.00;;
15116;SDS011;7659;51.038;13.786;2022-08-16T11:14:26;6.20;;;5.90;;
15116;SDS011;7659;51.038;13.786;2022-08-16T11:16:51;6.22;;;5.93;;
15116;SDS011;7659;51.038;13.786;2022-08-16T11:19:17;6.10;;;5.80;;
15116;SDS011;7659;51.038;13.786;2022-08-16T11:21:43;5.90;;;5.60;;
15116;SDS011;7659;51.038;13.786;2022-08-16T11:24:09;5.80;;;5.50;;
15116;SDS011;7659;51.038;13.786;2022-08-16T11:26:36;6.40;;;6.10;;
15116;SDS011;7659;51.038;13.786;2022-08-16T11:29:02;6.30;;;6.00;;
15116;SDS011;7659;51.038;13.786;2022-08-16T11:31:27;6.10;;;5.80;;
15116;SDS011;7659;51.038;13.786;2022-08-16T11:33:53;6.45;;;6.15;;
15116;SDS011;7659;51.038;13.786;2022-08-16T11:36:19;7.07;;;6.78;;
15116;SDS011;7659;51.038;13.786;2022-08-16T11:38:44;6.72;;;6.43;;
15116;SDS011;7659;51.038;13.786;2022-08-16T11:41:11;2.67;;;2.58;;
15116;SDS011;7659;51.038;13.786;2022-08-16T11:43:37;0.47;;;0.47;;
15116;SDS011;7659;51.038;13.786;2022-08-16T11:46:04;0.50;;;0.50;;
15116;SDS011;7659;51.038;13.786;2022-08-16T11:48:32;4.40;;;4.20;;
15116;SDS011;7659;51.038;13.786;2022-08-16T11:50:58;6.50;;;6.20;;
15116;SDS011;7659;51.038;13.786;2022-08-16T11:53:23;6.80;;;6.50;;
15116;SDS011;7659;51.038;13.786;2022-08-16T11:55:49;6.40;;;6.10;;
15116;SDS011;7659;51.038;13.786;2022-08-16T11:58:16;6.60;;;6.30;;
15116;SDS011;7659;51.038;13.786;2022-08-16T12:00:43;6.18;;;5.88;;
15116;SDS011;7659;51.038;13.786;2022-08-16T12:03:08;6.05;;;5.75;;
15116;SDS011;7659;51.038;13.786;2022-08-16T12:05:35;5.72;;;5.43;;
15116;SDS011;7659;51.038;13.786;2022-08-16T12:08:02;5.40;;;5.20;;
15116;SDS011;7659;51.038;13.786;2022-08-16T12:10:27;5.88;;;5.57;;
15116;SDS011;7659;51.038;13.786;2022-08-16T12:12:53;5.97;;;5.68;;
15116;SDS011;7659;51.038;13.786;2022-08-16T12:15:19;5.93;;;5.63;;
15116;SDS011;7659;51.038;13.786;2022-08-16T12:17:44;6.35;;;6.05;;
15116;SDS011;7659;51.038;13.786;2022-08-16T12:20:20;6.30;;;6.00;;
15116;SDS011;7659;51.038;13.786;2022-08-16T12:22:46;6.60;;;6.30;;
15116;SDS011;7659;51.038;13.786;2022-08-16T12:25:13;6.60;;;6.30;;
15116;SDS011;7659;51.038;13.786;2022-08-16T12:27:39;6.10;;;5.80;;
15116;SDS011;7659;51.038;13.786;2022-08-16T12:30:05;6.07;;;5.78;;
15116;SDS011;7659;51.038;13.786;2022-08-16T12:32:31;0.50;;;0.50;;
15116;SDS011;7659;51.038;13.786;2022-08-16T12:34:56;0.50;;;0.50;;
15116;SDS011;7659;51.038;13.786;2022-08-16T12:37:22;5.57;;;5.38;;
15116;SDS011;7659;51.038;13.786;2022-08-16T12:39:49;0.50;;;0.50;;
15116;SDS011;7659;51.038;13.786;2022-08-16T12:42:15;0.50;;;0.50;;
15116;SDS011;7659;51.038;13.786;2022-08-16T12:44:44;0.50;;;0.50;;
15116;SDS011;7659;51.038;13.786;2022-08-16T12:47:09;0.50;;;0.50;;
15116;SDS011;7659;51.038;13.786;2022-08-16T12:49:53;0.50;;;0.50;;
15116;SDS011;7659;51.038;13.786;2022-08-16T12:52:18;0.50;;;0.50;;
15116;SDS011;7659;51.038;13.786;2022-08-16T12:54:44;0.50;;;0.50;;
15116;SDS011;7659;51.038;13.786;2022-08-16T12:57:10;0.50;;;0.50;;
15116;SDS011;7659;51.038;13.786;2022-08-16T12:59:35;0.50;;;0.50;;
15116;SDS011;7659;51.038;13.786;2022-08-16T13:02:02;0.50;;;0.50;;
15116;SDS011;7659;51.038;13.786;2022-08-16T13:04:28;0.50;;;0.50;;
15116;SDS011;7659;51.038;13.786;2022-08-16T13:06:54;0.50;;;0.50;;
15116;SDS011;7659;51.038;13.786;2022-08-16T13:09:20;0.60;;;0.60;;
15116;SDS011;7659;51.038;13.786;2022-08-16T13:11:51;1.83;;;1.77;;
15116;SDS011;7659;51.038;13.786;2022-08-16T13:14:25;1.60;;;1.60;;
15116;SDS011;7659;51.038;13.786;2022-08-16T13:16:50;2.40;;;2.30;;
15116;SDS011;7659;51.038;13.786;2022-08-16T13:19:16;2.80;;;2.70;;
15116;SDS011;7659;51.038;13.786;2022-08-16T13:21:41;2.67;;;2.58;;
15116;SDS011;7659;51.038;13.786;2022-08-16T13:24:07;2.55;;;2.45;;
15116;SDS011;7659;51.038;13.786;2022-08-16T13:26:32;5.63;;;5.38;;
15116;SDS011;7659;51.038;13.786;2022-08-16T13:28:58;5.50;;;5.30;;
15116;SDS011;7659;51.038;13.786;2022-08-16T13:31:23;5.68;;;5.40;;
15116;SDS011;7659;51.038;13.786;2022-08-16T13:33:49;6.40;;;6.10;;
15116;SDS011;7659;51.038;13.786;2022-08-16T13:36:14;7.00;;;6.70;;
15116;SDS011;7659;51.038;13.786;2022-08-16T13:38:40;5.88;;;5.57;;
15116;SDS011;7659;51.038;13.786;2022-08-16T13:41:05;3.50;;;3.38;;
15116;SDS011;7659;51.038;13.786;2022-08-16T13:43:31;2.95;;;2.85;;
15116;SDS011;7659;51.038;13.786;2022-08-16T13:45:59;2.70;;;2.60;;
15116;SDS011;7659;51.038;13.786;2022-08-16T13:48:27;2.47;;;2.38;;
15116;SDS011;7659;51.038;13.786;2022-08-16T13:50:53;2.53;;;2.42;;
15116;SDS011;7659;51.038;13.786;2022-08-16T13:53:19;2.80;;;2.70;;
15116;SDS011;7659;51.038;13.786;2022-08-16T13:55:45;3.20;;;3.10;;
15116;SDS011;7659;51.038;13.786;2022-08-16T13:58:11;3.90;;;3.70;;
15116;SDS011;7659;51.038;13.786;2022-08-16T14:00:37;5.10;;;4.90;;
15116;SDS011;7659;51.038;13.786;2022-08-16T14:03:02;5.57;;;5.35;;
15116;SDS011;7659;51.038;13.786;2022-08-16T14:05:28;7.15;;;6.85;;
15116;SDS011;7659;51.038;13.786;2022-08-16T14:07:53;8.40;;;8.10;;
15116;SDS011;7659;51.038;13.786;2022-08-16T14:10:19;8.10;;;7.80;;
15116;SDS011;7659;51.038;13.786;2022-08-16T14:12:44;8.45;;;8.15;;
15116;SDS011;7659;51.038;13.786;2022-08-16T14:15:11;8.25;;;7.95;;
15116;SDS011;7659;51.038;13.786;2022-08-16T14:17:36;4.40;;;4.20;;
15116;SDS011;7659;51.038;13.786;2022-08-16T14:20:03;3.30;;;3.20;;
15116;SDS011;7659;51.038;13.786;2022-08-16T14:22:32;2.42;;;2.33;;
15116;SDS011;7659;51.038;13.786;2022-08-16T14:25:00;2.60;;;2.50;;
15116;SDS011;7659;51.038;13.786;2022-08-16T14:27:27;2.97;;;2.88;;
15116;SDS011;7659;51.038;13.786;2022-08-16T14:29:53;3.10;;;3.00;;
15116;SDS011;7659;51.038;13.786;2022-08-16T14:32:19;3.00;;;2.90;;
15116;SDS011;7659;51.038;13.786;2022-08-16T14:34:45;4.22;;;4.03;;
15116;SDS011;7659;51.038;13.786;2022-08-16T14:37:10;6.18;;;5.88;;
15116;SDS011;7659;51.038;13.786;2022-08-16T14:39:36;6.32;;;6.03;;
15116;SDS011;7659;51.038;13.786;2022-08-16T14:42:03;6.03;;;5.72;;
15116;SDS011;7659;51.038;13.786;2022-08-16T14:44:28;7.13;;;6.82;;
15116;SDS011;7659;51.038;13.786;2022-08-16T14:46:54;7.75;;;7.45;;
15116;SDS011;7659;51.038;13.786;2022-08-16T14:49:20;8.95;;;8.55;;
15116;SDS011;7659;51.038;13.786;2022-08-16T14:51:45;7.10;;;6.80;;
15116;SDS011;7659;51.038;13.786;2022-08-16T14:54:12;7.80;;;7.50;;
15116;SDS011;7659;51.038;13.786;2022-08-16T14:56:38;5.97;;;5.68;;
15116;SDS011;7659;51.038;13.786;2022-08-16T14:59:03;6.70;;;6.40;;
15116;SDS011;7659;51.038;13.786;2022-08-16T15:01:29;6.75;;;6.45;;
15116;SDS011;7659;51.038;13.786;2022-08-16T15:03:55;7.32;;;7.03;;
15116;SDS011;7659;51.038;13.786;2022-08-16T15:06:20;8.10;;;7.80;;
15116;SDS011;7659;51.038;13.786;2022-08-16T15:08:46;9.18;;;8.77;;
15116;SDS011;7659;51.038;13.786;2022-08-16T15:11:11;11.23;;;10.82;;